createdAt,value
2023-04-23T00:02:07.029Z,12.12
2023-04-23T00:14:06.985Z,12.11
2023-04-23T00:26:07.006Z,12.10
2023-04-23T00:38:07.094Z,12.09
2023-04-23T00:50:07.012Z,12.08
2023-04-23T01:02:07.142Z,12.07
2023-04-23T01:14:07.004Z,12.05
2023-04-23T01:26:06.985Z,12.05
2023-04-23T01:38:07.000Z,12.03
2023-04-23T01:50:06.997Z,12.02
2023-04-23T02:02:07.077Z,12.01
2023-04-23T02:14:06.986Z,12.00
2023-04-23T02:26:07.054Z,11.99
2023-04-23T02:38:07.028Z,11.97
2023-04-23T02:50:07.015Z,11.97
2023-04-23T03:02:07.126Z,11.96
2023-04-23T03:14:07.101Z,11.94
2023-04-23T03:26:07.078Z,11.93
2023-04-23T03:38:07.104Z,11.92
2023-04-23T03:50:07.111Z,11.91
2023-04-23T04:02:07.162Z,11.91
2023-04-23T04:14:06.987Z,11.89
2023-04-23T04:26:06.994Z,11.88
2023-04-23T04:38:07.098Z,11.87
2023-04-23T04:50:06.986Z,11.86
2023-04-23T05:02:07.055Z,11.85
2023-04-23T05:14:07.018Z,11.85
2023-04-23T05:26:06.990Z,11.85
2023-04-23T05:38:06.990Z,11.86
2023-04-23T05:50:07.098Z,11.86
2023-04-23T06:02:07.210Z,11.91
2023-04-23T06:14:07.080Z,11.95
2023-04-23T06:26:07.036Z,11.95
2023-04-23T06:38:07.087Z,12.02
2023-04-23T06:50:07.061Z,11.99
2023-04-23T07:02:07.070Z,12.00
2023-04-23T07:14:07.060Z,12.02
2023-04-23T07:26:07.124Z,12.06
2023-04-23T07:38:06.977Z,12.23
2023-04-23T07:50:07.081Z,12.28
2023-04-23T08:02:07.176Z,12.38
2023-04-23T08:14:07.108Z,12.44
2023-04-23T08:26:07.091Z,12.47
2023-04-23T08:38:07.093Z,12.80
2023-04-23T08:50:07.131Z,12.79
2023-04-23T09:02:07.140Z,12.80
2023-04-23T09:14:06.994Z,12.81
2023-04-23T09:26:07.096Z,12.81
2023-04-23T09:38:07.069Z,12.82
2023-04-23T09:50:06.991Z,12.82
2023-04-23T10:02:07.277Z,12.83
2023-04-23T10:14:07.006Z,12.83
2023-04-23T10:26:07.612Z,12.83
2023-04-23T10:38:07.300Z,12.82
2023-04-23T10:50:06.991Z,12.83
2023-04-23T11:14:06.993Z,12.79
2023-04-23T11:38:07.000Z,12.83
2023-04-23T11:50:06.992Z,12.83
2023-04-23T12:02:07.101Z,12.82
2023-04-23T12:14:07.114Z,12.81
2023-04-23T12:26:06.985Z,12.81
2023-04-23T12:38:07.008Z,12.81
2023-04-23T12:50:07.522Z,12.81
2023-04-23T13:02:07.283Z,12.81
2023-04-23T14:38:07.113Z,12.77
2023-04-23T15:18:19.569Z,12.71
2023-04-23T15:30:20.557Z,12.70
2023-04-23T15:48:24.522Z,12.66
2023-04-23T16:00:24.410Z,12.64
2023-04-23T16:12:24.426Z,12.60
2023-04-23T16:24:24.522Z,12.59
2023-04-23T16:36:24.418Z,12.58
2023-04-23T16:48:24.526Z,12.56
2023-04-23T17:00:24.524Z,12.55
2023-04-23T17:12:24.538Z,12.53
2023-04-23T17:24:25.295Z,12.53
2023-04-23T17:36:24.535Z,12.52
2023-04-23T17:48:24.533Z,12.51
2023-04-23T18:00:24.520Z,12.49
2023-04-23T18:12:24.423Z,12.48
2023-04-23T18:24:24.519Z,12.47
2023-04-23T18:36:24.529Z,12.45
2023-04-23T18:48:24.532Z,12.44
2023-04-23T19:00:24.516Z,12.43
2023-04-23T19:12:24.419Z,12.42
2023-04-23T19:24:24.483Z,12.40
2023-04-23T19:36:24.526Z,12.39
2023-04-23T19:48:24.517Z,12.36
2023-04-23T20:00:24.420Z,12.35
2023-04-23T20:12:24.733Z,12.35
2023-04-23T20:24:24.550Z,12.34
2023-04-23T20:36:24.424Z,12.33
2023-04-23T20:48:25.843Z,12.31
2023-04-23T21:00:24.440Z,12.30
2023-04-23T21:12:25.402Z,12.29
2023-04-23T21:24:24.427Z,12.28
2023-04-23T21:36:24.422Z,12.26
2023-04-23T21:48:24.416Z,12.25
2023-04-23T22:00:24.544Z,12.24
2023-04-23T22:12:24.420Z,12.23
2023-04-23T22:24:24.537Z,12.22
2023-04-23T22:36:24.420Z,12.21
2023-04-23T22:48:24.427Z,12.19
2023-04-23T23:00:24.470Z,12.19
2023-04-23T23:12:24.517Z,12.17
2023-04-23T23:24:24.523Z,12.16
2023-04-23T23:36:24.532Z,12.15
2023-04-23T23:48:24.413Z,12.14
